createdAt,value
2023-01-29T00:06:00.979Z,130
2023-01-29T00:35:57.963Z,121
2023-01-29T01:06:59.119Z,116
2023-01-29T01:36:51.195Z,118
2023-01-29T02:06:47.643Z,113
2023-01-29T02:37:54.322Z,114
2023-01-29T03:07:48.132Z,114
2023-01-29T03:37:44.295Z,113
2023-01-29T04:07:41.853Z,113
2023-01-29T04:37:35.027Z,113
2023-01-29T05:07:35.558Z,113
2023-01-29T05:37:33.308Z,105
2023-01-29T06:07:24.636Z,103
2023-01-29T06:37:28.865Z,101
2023-01-29T07:07:24.630Z,102
2023-01-29T07:37:26.224Z,107
2023-01-29T08:07:24.926Z,110
2023-01-29T08:37:25.597Z,114
2023-01-29T09:07:29.462Z,114
2023-01-29T09:37:25.041Z,119
2023-01-29T10:07:26.686Z,117
2023-01-29T10:37:29.462Z,116
2023-01-29T11:07:31.276Z,114
2023-01-29T11:37:30.730Z,111
2023-01-29T12:07:31.714Z,111
2023-01-29T12:37:29.033Z,114
2023-01-29T13:07:28.606Z,118
2023-01-29T13:37:27.026Z,118
2023-01-29T14:07:24.615Z,117
2023-01-29T14:37:26.054Z,118
2023-01-29T15:07:23.013Z,116
2023-01-29T15:37:22.229Z,175
2023-01-29T16:07:18.882Z,144
2023-01-29T16:37:11.780Z,142
2023-01-29T17:07:11.925Z,139
2023-01-29T17:37:05.668Z,153
2023-01-29T18:08:11.239Z,147
2023-01-29T18:38:05.777Z,147
2023-01-29T19:08:04.541Z,185
2023-01-29T19:38:05.454Z,157
2023-01-29T20:08:05.963Z,159
2023-01-29T20:38:07.685Z,160
2023-01-29T21:08:05.001Z,161
2023-01-29T21:38:02.863Z,160
2023-01-29T22:08:03.794Z,170
2023-01-29T22:38:03.795Z,165
2023-01-29T23:07:56.596Z,166
2023-01-29T23:37:58.436Z,166
